• Join FlightAware (Why Join?)
  • Login
  • US Flag 
12:57PM EDT


 

Airport Tracker/Info


-or-


 

Live Flight TrackerFlight Track Log ✈ RPA3396 ✈ 14-Jun-2013 ✈ KMSP - KDCA

Flight Track Log - Related Links

Times and Time Zones

All times are in EDT time to prevent confusion due to time zone crossing. See the RPA3396 flight status page for this flight to view local times or setup timezone preferences in your user account.

Time Position Orientation Groundspeed Altitude Reporting Facility
EDT Latitude Longitude Course Direction KTS MPH feet Rate Location/Type
12:19PM 44.8500 -93.2167 117° Southeast 164 189 2,400  Level Minneapolis TRACON
12:19PM 44.8292 -93.1803 129° Southeast 188 216 3,200 1,920 Climbing Minneapolis Center
12:20PM 44.8003 -93.0972 116° Southeast 238 274 5,600 2,340 Climbing Minneapolis Center
12:21PM 44.7200 -92.6330 113° Southeast  Level Estimated
12:21PM 44.7728 -92.9950 111° Southeast 276 318 8,100  Level Minneapolis Center
12:22PM 44.6584 -92.5013 123° Southeast  Level FlightAware Approximate
12:22PM 44.7425 -92.8844 111° Southeast 299 344 10,600  Level Minneapolis Center
12:23PM 44.6054 -92.3522 117° Southeast  Level FlightAware Approximate
12:23PM 44.7028 -92.7386 111° Southeast 334 384 12,900  Level Minneapolis Center
12:24PM 44.5544 -92.2122 117° Southeast  Level FlightAware Approximate
12:25PM 44.6857 -92.5732 98° East  Level FlightAware Approximate
12:26PM 44.6400 -92.4642 98° East 374 430 17,000  Level Minneapolis Center
12:27PM 44.6067 -92.3217 108° East 388 447 18,900 1,920 Climbing Minneapolis Center
12:28PM 44.5725 -92.1733 108° East 396 456 21,000 1,800 Climbing Minneapolis Center
12:29PM 44.5375 -92.0194 108° East 409 471 22,600 1,500 Climbing Minneapolis Center
12:30PM 44.4925 -91.8303 108° East 423 487 24,100 1,140 Climbing Minneapolis Center
12:31PM 44.4547 -91.6669 108° East 438 504 25,000 420 Climbing Minneapolis Center
12:32PM 44.4147 -91.5050 109° East 442 509 25,000 600 Level Minneapolis Center
12:33PM 44.3442 -91.3200 118° Southeast 448 516 26,400 1,260 Climbing Minneapolis Center
12:34PM 44.2800 -91.1450 117° Southeast 454 522 27,900 1,260 Climbing Minneapolis Center
12:35PM 44.2214 -90.9889 118° Southeast 456 525 29,100 1,020 Climbing Minneapolis Center
12:36PM 44.1614 -90.8308 118° Southeast 462 532 30,100 900 Climbing Minneapolis Center
12:37PM 44.1006 -90.6711 118° Southeast 468 539 31,000 840 Climbing Minneapolis Center
12:38PM 44.0536 -90.5386 116° Southeast 476 548 31,800 1,020 Climbing Chicago Center
12:39PM 44.0056 -90.3331 108° East 473 544 33,000 540 Climbing Chicago Center
12:40PM 43.9692 -90.1692 107° East 468 539 33,000  Level Chicago Center
12:41PM 43.9269 -89.9936 108° East 477 549 33,000  Level Chicago Center
12:42PM 43.8786 -89.7794 107° East 494 568 33,000  Level Chicago Center
12:43PM 43.8342 -89.5933 108° East 506 582 33,000  Level Chicago Center
12:44PM 43.7897 -89.4022 108° East 517 595 33,000  Level Chicago Center
12:45PM 43.7458 -89.2161 108° East 512 589 33,000  Level Chicago Center
12:46PM 43.7036 -89.0378 108° East 494 568 33,000  Level Chicago Center
12:47PM 43.6547 -88.8336 108° East 481 554 33,000  Level Chicago Center
12:48PM 43.6111 -88.6547 109° East 486 559 33,000  Level Chicago Center
12:49PM 43.5692 -88.4731 108° East 488 562 33,000  Level Chicago Center
12:50PM 43.5217 -88.2897 110° East 493 567 33,000  Level Chicago Center
12:51PM 43.4764 -88.1114 109° East 490 564 33,000  Level Chicago Center
12:52PM 43.4317 -87.9342 109° East 489 563 33,000  Level Chicago Center
12:53PM 43.3869 -87.7569 109° East 489 563 33,000  Level Chicago Center
12:54PM 43.3414 -87.5817 110° East 485 558 33,000  Level Chicago Center
12:56PM 43.2972 -87.4042 109° East 490 564 33,000  Level Chicago Center
12:57PM 43.2436 -87.1983 110° East 492 566 33,000  Level Chicago Center
12:58PM 43.1983 -87.0233 109° East 490 564 33,000  Level Chicago Center
12:59PM 43.1525 -86.8472 110° East 492 566 33,000  Level Chicago Center
01:00PM 43.1067 -86.6725 110° East 490 564 33,000  Level Chicago Center
01:01PM 43.0600 -86.4994 110° East 488 562 33,000  Level Chicago Center
01:02PM 43.0131 -86.3272 110° East 488 562 33,000  Level Chicago Center
01:03PM 42.9564 -86.1233 111° Southeast 487 560 33,000  Level Chicago Center
01:04PM 42.9103 -85.9533 110° East 494 568 33,000  Level Chicago Center
01:05PM 42.8650 -85.7825 110° East 490 564 33,000  Level Chicago Center
01:06PM 42.8189 -85.6111 110° East 489 563 33,000  Level Chicago Center
01:07PM 42.7572 -85.4072 112° Southeast 489 563 33,000  Level Chicago Center
01:08PM 42.6975 -85.2419 116° Southeast 489 563 33,000  Level Chicago Center
01:09PM 42.6400 -85.0761 115° Southeast 487 560 33,000  Level Chicago Center
01:10PM 42.5800 -84.9108 116° Southeast 490 564 33,000  Level Chicago Center
01:11PM 42.5217 -84.7436 115° Southeast 492 566 33,000  Level Chicago Center
01:12PM 42.4619 -84.5786 116° Southeast 490 564 33,000  Level Chicago Center
01:13PM 42.3914 -84.3833 116° Southeast 484 557 33,000  Level Chicago Center
01:13PM 42.3681 -84.3269 119° Southeast 480 552 33,000  Level Cleveland Center
01:14PM 42.3122 -84.1775 117° Southeast 480 552 33,000  Level Cleveland Center
01:15PM 42.2528 -84.0142 116° Southeast 480 552 33,000  Level Cleveland Center
01:16PM 42.1928 -83.8539 117° Southeast 480 552 33,000  Level Cleveland Center
01:17PM 42.1325 -83.6911 116° Southeast 480 552 33,000  Level Cleveland Center
01:18PM 42.0683 -83.5175 116° Southeast 480 552 33,000  Level Cleveland Center
01:19PM 41.9950 -83.3631 123° Southeast 485 558 33,000  Level Cleveland Center
01:20PM 41.9194 -83.2147 124° Southeast 490 564 33,000  Level Cleveland Center
01:21PM 41.8472 -83.0808 126° Southeast 490 564 33,000  Level Cleveland Center
01:22PM 41.7711 -82.9331 125° Southeast 490 564 33,000  Level Cleveland Center
01:23PM 41.6928 -82.7883 126° Southeast 485 558 33,000  Level Cleveland Center
01:24PM 41.6142 -82.6411 126° Southeast 485 558 33,000  Level Cleveland Center
01:25PM 41.5375 -82.4944 125° Southeast 485 558 33,000  Level Cleveland Center
01:26PM 41.4458 -82.3589 132° Southeast 485 558 33,000  Level Cleveland Center
01:27PM 41.3475 -82.2400 138° Southeast 485 558 33,000  Level Cleveland Center
01:28PM 41.2392 -82.0992 136° Southeast 485 558 33,000  Level Cleveland Center
01:29PM 41.1386 -81.9756 137° Southeast 485 558 33,000  Level Cleveland Center
01:30PM 41.0417 -81.8686 140° Southeast 497 572 33,000  Level Cleveland Center
01:31PM 40.9431 -81.7458 137° Southeast 502 578 33,000  Level Cleveland Center
01:32PM 40.8400 -81.6233 138° Southeast 502 578 33,000  Level Cleveland Center
01:33PM 40.7286 -81.4928 138° Southeast 502 578 33,000  Level Cleveland Center
01:34PM 40.6253 -81.3683 138° Southeast 502 578 33,000  Level Cleveland Center
01:35PM 40.5281 -81.2442 136° Southeast 497 572 33,000  Level Cleveland Center
01:36PM 40.4328 -81.1314 138° Southeast 497 572 33,000  Level Cleveland Center
01:37PM 40.3289 -81.0081 138° Southeast 502 578 33,000  Level Cleveland Center
01:38PM 40.2272 -80.8875 138° Southeast 502 578 33,000  Level Cleveland Center
01:39PM 40.1211 -80.7678 139° Southeast 502 578 33,000  Level Cleveland Center
01:40PM 40.0192 -80.6508 139° Southeast 502 578 33,000  Level Cleveland Center
01:41PM 39.9192 -80.5317 138° Southeast 502 578 33,000  Level Cleveland Center
01:42PM 39.8169 -80.4183 140° Southeast 491 565 33,000  Level Cleveland Center
01:43PM 39.7208 -80.3050 138° Southeast 479 551 33,000  Level Cleveland Center
01:44PM 39.6203 -80.1922 139° Southeast 479 551 33,000 -420 Level Cleveland Center
01:45PM 39.5500 -80.1053 136° Southeast 475 547 32,300 -1,200 Descending Washington Center
01:46PM 39.4928 -79.9644 118° Southeast 459 528 31,000 -1,020 Descending Washington Center
01:47PM 39.4417 -79.8161 114° Southeast 448 516 30,300 -1,260 Descending Washington Center
01:48PM 39.3906 -79.6656 114° Southeast 448 516 28,500 -1,680 Descending Washington Center
01:49PM 39.3433 -79.5178 112° Southeast 448 516 27,000 -780 Descending Washington Center
01:50PM 39.2958 -79.3731 113° Southeast 441 507 27,000 -600 Level Washington Center
01:51PM 39.2519 -79.2422 113° Southeast 436 502 25,800 -2,220 Descending Washington Center
01:52PM 39.2356 -79.0939 98° East 431 496 22,700 -2,940 Descending Washington Center
01:53PM 39.2231 -78.9514 96° East 411 473 20,000 -1,860 Descending Washington Center
01:54PM 39.2100 -78.8169 97° East 399 459 19,000 -540 Descending Washington Center
01:55PM 39.1967 -78.6850 97° East 385 443 19,000  Level Washington Center
01:56PM 39.1833 -78.5506 97° East 385 443 19,000 -600 Level Washington Center
01:57PM 39.1681 -78.4161 98° East 379 436 17,800 -1,320 Descending Washington Center
01:58PM 39.1439 -78.2867 103° East 374 430 16,400 -1,260 Descending Washington Center
01:59PM 39.1133 -78.1597 107° East 368 423 15,400 -1,020 Descending Washington Center
02:00PM 39.0744 -78.0142 109° East 368 423 14,200 -1,080 Descending Washington Center
02:01PM 39.0456 -77.8981 108° East 351 404 13,000 -1,500 Descending Washington Center
02:02PM 39.0164 -77.7850 108° East 342 394 11,300 -1,020 Descending Washington Center
02:03PM 38.9853 -77.6667 109° East 324 373 11,000 -480 Descending Washington Center
02:04PM 38.9667 -77.6167 116° Southeast 302 348 10,600 -1,320 Descending Potomac TRACON
02:05PM 38.9333 -77.5167 113° Southeast 293 337 9,000 -1,500 Descending Potomac TRACON
02:06PM 38.9000 -77.4167 113° Southeast 302 348 7,600 -1,380 Descending Potomac TRACON
02:07PM 38.8500 -77.3167 123° Southeast 289 333 6,100 -780 Descending Potomac TRACON
02:08PM 38.8167 -77.2333 117° Southeast 243 280 6,000 -60 Descending Potomac TRACON
02:09PM 38.7833 -77.1667 123° Southeast 221 254 6,000  Level Potomac TRACON
02:10PM 38.7500 -77.1167 131° Southeast 226 260 6,000 -240 Level Potomac TRACON
02:11PM 38.6833 -77.1167 180° South 227 261 5,600 -900 Descending Potomac TRACON
02:12PM 38.6333 -77.1000 165° South 218 251 4,200 -900 Descending Potomac TRACON
02:13PM 38.5833 -77.0833 165° South 210 242 3,900 -600 Descending Potomac TRACON
02:14PM 38.5833 -77.0167 90° East 181 208 3,000 -480 Descending Potomac TRACON
02:15PM 38.6167 -77.0167 360° North 168 193 3,000  Level Potomac TRACON
02:16PM 38.6667 -77.0167 360° North 168 193 3,000  Level Potomac TRACON